sensor_id;sensor_type;location;lat;lon;timestamp;P1;durP1;ratioP1;P2;durP2;ratioP2
41532;SDS011;27262;-35.248;149.138;2023-06-04T00:01:56;2.08;;;1.17;;
41532;SDS011;27262;-35.248;149.138;2023-06-04T00:04:26;3.05;;;1.60;;
41532;SDS011;27262;-35.248;149.138;2023-06-04T00:06:57;2.75;;;1.50;;
41532;SDS011;27262;-35.248;149.138;2023-06-04T00:09:27;3.90;;;1.30;;
41532;SDS011;27262;-35.248;149.138;2023-06-04T00:11:58;1.20;;;1.10;;
41532;SDS011;27262;-35.248;149.138;2023-06-04T00:14:28;4.10;;;1.50;;
41532;SDS011;27262;-35.248;149.138;2023-06-04T00:16:59;2.15;;;1.40;;
41532;SDS011;27262;-35.248;149.138;2023-06-04T00:19:29;3.70;;;1.17;;
41532;SDS011;27262;-35.248;149.138;2023-06-04T00:22:00;3.10;;;1.33;;
41532;SDS011;27262;-35.248;149.138;2023-06-04T00:24:30;1.67;;;1.30;;
41532;SDS011;27262;-35.248;149.138;2023-06-04T00:27:00;2.08;;;1.40;;
41532;SDS011;27262;-35.248;149.138;2023-06-04T00:29:31;2.33;;;1.30;;
41532;SDS011;27262;-35.248;149.138;2023-06-04T00:32:01;2.47;;;1.48;;
41532;SDS011;27262;-35.248;149.138;2023-06-04T00:34:32;2.75;;;1.17;;
41532;SDS011;27262;-35.248;149.138;2023-06-04T00:37:03;4.15;;;1.80;;
41532;SDS011;27262;-35.248;149.138;2023-06-04T00:39:33;2.75;;;1.52;;
41532;SDS011;27262;-35.248;149.138;2023-06-04T00:42:04;1.85;;;1.10;;
41532;SDS011;27262;-35.248;149.138;2023-06-04T00:44:35;1.67;;;1.20;;
41532;SDS011;27262;-35.248;149.138;2023-06-04T00:47:05;2.63;;;1.40;;
41532;SDS011;27262;-35.248;149.138;2023-06-04T00:49:36;2.05;;;1.20;;
41532;SDS011;27262;-35.248;149.138;2023-06-04T00:52:07;2.05;;;1.05;;
41532;SDS011;27262;-35.248;149.138;2023-06-04T00:54:38;3.33;;;1.00;;
41532;SDS011;27262;-35.248;149.138;2023-06-04T00:57:09;1.30;;;1.08;;
41532;SDS011;27262;-35.248;149.138;2023-06-04T00:59:39;4.10;;;1.20;;
41532;SDS011;27262;-35.248;149.138;2023-06-04T01:02:17;3.13;;;1.45;;
41532;SDS011;27262;-35.248;149.138;2023-06-04T01:07:48;2.45;;;1.25;;
41532;SDS011;27262;-35.248;149.138;2023-06-04T01:10:21;2.70;;;1.10;;
41532;SDS011;27262;-35.248;149.138;2023-06-04T01:12:51;3.05;;;1.20;;
41532;SDS011;27262;-35.248;149.138;2023-06-04T01:15:21;3.05;;;1.15;;
41532;SDS011;27262;-35.248;149.138;2023-06-04T01:17:53;2.65;;;1.10;;
41532;SDS011;27262;-35.248;149.138;2023-06-04T01:20:36;2.58;;;1.30;;
41532;SDS011;27262;-35.248;149.138;2023-06-04T01:23:19;2.97;;;0.90;;
41532;SDS011;27262;-35.248;149.138;2023-06-04T01:26:03;1.60;;;1.00;;
41532;SDS011;27262;-35.248;149.138;2023-06-04T01:28:34;2.00;;;0.85;;
41532;SDS011;27262;-35.248;149.138;2023-06-04T01:31:05;1.77;;;0.95;;
41532;SDS011;27262;-35.248;149.138;2023-06-04T01:33:37;1.20;;;0.93;;
41532;SDS011;27262;-35.248;149.138;2023-06-04T01:36:08;2.97;;;1.10;;
41532;SDS011;27262;-35.248;149.138;2023-06-04T01:38:40;2.38;;;1.17;;
41532;SDS011;27262;-35.248;149.138;2023-06-04T01:41:11;2.97;;;1.02;;
41532;SDS011;27262;-35.248;149.138;2023-06-04T01:43:41;1.08;;;0.98;;
41532;SDS011;27262;-35.248;149.138;2023-06-04T01:46:11;2.17;;;0.85;;
41532;SDS011;27262;-35.248;149.138;2023-06-04T01:48:42;1.75;;;1.08;;
41532;SDS011;27262;-35.248;149.138;2023-06-04T01:51:12;5.53;;;1.00;;
41532;SDS011;27262;-35.248;149.138;2023-06-04T01:53:42;4.40;;;1.20;;
41532;SDS011;27262;-35.248;149.138;2023-06-04T01:56:14;3.40;;;1.15;;
41532;SDS011;27262;-35.248;149.138;2023-06-04T01:58:44;8.25;;;1.55;;
41532;SDS011;27262;-35.248;149.138;2023-06-04T02:01:14;4.32;;;1.27;;
41532;SDS011;27262;-35.248;149.138;2023-06-04T02:03:45;3.92;;;1.02;;
41532;SDS011;27262;-35.248;149.138;2023-06-04T02:06:15;4.03;;;1.00;;
41532;SDS011;27262;-35.248;149.138;2023-06-04T02:08:46;3.42;;;1.33;;
41532;SDS011;27262;-35.248;149.138;2023-06-04T02:11:16;3.92;;;1.42;;
41532;SDS011;27262;-35.248;149.138;2023-06-04T02:13:46;4.20;;;1.08;;
41532;SDS011;27262;-35.248;149.138;2023-06-04T02:16:17;5.10;;;0.82;;
41532;SDS011;27262;-35.248;149.138;2023-06-04T02:18:47;5.72;;;1.25;;
41532;SDS011;27262;-35.248;149.138;2023-06-04T02:21:18;2.65;;;1.20;;
41532;SDS011;27262;-35.248;149.138;2023-06-04T02:23:48;1.55;;;1.00;;
41532;SDS011;27262;-35.248;149.138;2023-06-04T02:26:18;3.15;;;1.10;;
41532;SDS011;27262;-35.248;149.138;2023-06-04T02:28:50;5.25;;;1.30;;
41532;SDS011;27262;-35.248;149.138;2023-06-04T02:31:20;2.47;;;0.90;;
41532;SDS011;27262;-35.248;149.138;2023-06-04T02:33:50;3.40;;;1.20;;
41532;SDS011;27262;-35.248;149.138;2023-06-04T02:36:21;3.67;;;1.42;;
41532;SDS011;27262;-35.248;149.138;2023-06-04T02:38:51;3.50;;;1.08;;
41532;SDS011;27262;-35.248;149.138;2023-06-04T02:41:22;2.83;;;1.00;;
41532;SDS011;27262;-35.248;149.138;2023-06-04T02:43:54;2.88;;;0.82;;
41532;SDS011;27262;-35.248;149.138;2023-06-04T02:46:24;2.58;;;1.25;;
41532;SDS011;27262;-35.248;149.138;2023-06-04T02:48:55;6.25;;;1.05;;
41532;SDS011;27262;-35.248;149.138;2023-06-04T02:51:25;4.13;;;1.15;;
41532;SDS011;27262;-35.248;149.138;2023-06-04T02:53:57;1.73;;;1.00;;
41532;SDS011;27262;-35.248;149.138;2023-06-04T02:56:27;2.55;;;1.00;;
41532;SDS011;27262;-35.248;149.138;2023-06-04T02:58:57;4.57;;;1.00;;
41532;SDS011;27262;-35.248;149.138;2023-06-04T03:01:32;4.78;;;1.10;;
41532;SDS011;27262;-35.248;149.138;2023-06-04T03:04:02;2.00;;;0.90;;
41532;SDS011;27262;-35.248;149.138;2023-06-04T03:06:33;1.10;;;0.80;;
41532;SDS011;27262;-35.248;149.138;2023-06-04T03:09:06;3.80;;;0.75;;
41532;SDS011;27262;-35.248;149.138;2023-06-04T03:11:37;3.88;;;0.90;;
41532;SDS011;27262;-35.248;149.138;2023-06-04T03:14:08;3.13;;;1.20;;
41532;SDS011;27262;-35.248;149.138;2023-06-04T03:16:38;2.22;;;0.63;;
41532;SDS011;27262;-35.248;149.138;2023-06-04T03:19:09;3.80;;;1.15;;
41532;SDS011;27262;-35.248;149.138;2023-06-04T03:21:40;1.35;;;0.90;;
41532;SDS011;27262;-35.248;149.138;2023-06-04T03:24:10;0.80;;;0.70;;
41532;SDS011;27262;-35.248;149.138;2023-06-04T03:26:40;2.70;;;1.13;;
41532;SDS011;27262;-35.248;149.138;2023-06-04T03:29:11;4.68;;;1.00;;
41532;SDS011;27262;-35.248;149.138;2023-06-04T03:31:43;3.03;;;0.93;;
41532;SDS011;27262;-35.248;149.138;2023-06-04T03:34:14;1.75;;;0.90;;
41532;SDS011;27262;-35.248;149.138;2023-06-04T03:36:44;3.03;;;0.85;;
41532;SDS011;27262;-35.248;149.138;2023-06-04T03:39:15;3.67;;;1.10;;
41532;SDS011;27262;-35.248;149.138;2023-06-04T03:41:45;2.45;;;0.80;;
41532;SDS011;27262;-35.248;149.138;2023-06-04T03:44:16;2.58;;;1.00;;
41532;SDS011;27262;-35.248;149.138;2023-06-04T03:46:47;1.80;;;0.80;;
41532;SDS011;27262;-35.248;149.138;2023-06-04T03:49:18;1.73;;;0.75;;
41532;SDS011;27262;-35.248;149.138;2023-06-04T03:51:50;1.67;;;0.90;;
41532;SDS011;27262;-35.248;149.138;2023-06-04T03:54:21;1.52;;;0.88;;
41532;SDS011;27262;-35.248;149.138;2023-06-04T03:56:51;1.42;;;0.80;;
41532;SDS011;27262;-35.248;149.138;2023-06-04T03:59:21;0.88;;;0.68;;
41532;SDS011;27262;-35.248;149.138;2023-06-04T04:01:52;2.00;;;0.85;;
41532;SDS011;27262;-35.248;149.138;2023-06-04T04:04:22;3.17;;;0.93;;
41532;SDS011;27262;-35.248;149.138;2023-06-04T04:06:53;3.08;;;0.77;;
41532;SDS011;27262;-35.248;149.138;2023-06-04T04:09:23;3.15;;;0.80;;
41532;SDS011;27262;-35.248;149.138;2023-06-04T04:11:54;3.50;;;0.80;;
41532;SDS011;27262;-35.248;149.138;2023-06-04T04:14:24;3.00;;;0.93;;
41532;SDS011;27262;-35.248;149.138;2023-06-04T04:16:54;2.50;;;0.90;;
41532;SDS011;27262;-35.248;149.138;2023-06-04T04:19:25;3.00;;;0.98;;
41532;SDS011;27262;-35.248;149.138;2023-06-04T04:21:57;4.88;;;1.13;;
41532;SDS011;27262;-35.248;149.138;2023-06-04T04:24:27;2.47;;;0.80;;
41532;SDS011;27262;-35.248;149.138;2023-06-04T04:26:58;4.32;;;0.93;;
41532;SDS011;27262;-35.248;149.138;2023-06-04T04:29:28;1.08;;;0.60;;
41532;SDS011;27262;-35.248;149.138;2023-06-04T04:32:03;4.55;;;1.02;;
41532;SDS011;27262;-35.248;149.138;2023-06-04T04:34:49;1.42;;;0.70;;
41532;SDS011;27262;-35.248;149.138;2023-06-04T04:37:21;2.20;;;0.80;;
41532;SDS011;27262;-35.248;149.138;2023-06-04T04:39:51;4.32;;;0.88;;
41532;SDS011;27262;-35.248;149.138;2023-06-04T04:42:22;1.75;;;0.70;;
41532;SDS011;27262;-35.248;149.138;2023-06-04T04:44:52;1.25;;;0.90;;
41532;SDS011;27262;-35.248;149.138;2023-06-04T04:47:23;1.60;;;0.70;;
41532;SDS011;27262;-35.248;149.138;2023-06-04T04:49:53;3.72;;;0.70;;
41532;SDS011;27262;-35.248;149.138;2023-06-04T04:52:23;1.92;;;0.75;;
41532;SDS011;27262;-35.248;149.138;2023-06-04T04:54:54;1.85;;;0.65;;
41532;SDS011;27262;-35.248;149.138;2023-06-04T04:57:26;5.65;;;1.40;;
41532;SDS011;27262;-35.248;149.138;2023-06-04T04:59:56;3.50;;;0.70;;
41532;SDS011;27262;-35.248;149.138;2023-06-04T05:02:26;1.13;;;0.63;;
41532;SDS011;27262;-35.248;149.138;2023-06-04T05:04:57;2.30;;;0.68;;
41532;SDS011;27262;-35.248;149.138;2023-06-04T05:07:27;2.85;;;0.70;;
41532;SDS011;27262;-35.248;149.138;2023-06-04T05:09:58;2.35;;;0.70;;
41532;SDS011;27262;-35.248;149.138;2023-06-04T05:12:29;2.20;;;0.80;;
41532;SDS011;27262;-35.248;149.138;2023-06-04T05:15:02;1.83;;;0.80;;
41532;SDS011;27262;-35.248;149.138;2023-06-04T05:17:33;0.98;;;0.60;;
41532;SDS011;27262;-35.248;149.138;2023-06-04T05:20:04;3.30;;;0.88;;
41532;SDS011;27262;-35.248;149.138;2023-06-04T05:22:34;1.30;;;0.65;;
41532;SDS011;27262;-35.248;149.138;2023-06-04T05:25:05;3.17;;;0.88;;
41532;SDS011;27262;-35.248;149.138;2023-06-04T05:27:37;1.65;;;0.60;;
41532;SDS011;27262;-35.248;149.138;2023-06-04T05:30:08;3.75;;;0.82;;
41532;SDS011;27262;-35.248;149.138;2023-06-04T05:32:39;4.22;;;0.75;;
41532;SDS011;27262;-35.248;149.138;2023-06-04T05:35:10;4.20;;;0.60;;
41532;SDS011;27262;-35.248;149.138;2023-06-04T05:37:40;2.55;;;1.10;;
41532;SDS011;27262;-35.248;149.138;2023-06-04T05:40:14;1.58;;;0.60;;
41532;SDS011;27262;-35.248;149.138;2023-06-04T05:42:44;1.90;;;0.77;;
41532;SDS011;27262;-35.248;149.138;2023-06-04T05:45:14;2.53;;;0.57;;
41532;SDS011;27262;-35.248;149.138;2023-06-04T05:47:45;0.73;;;0.50;;
41532;SDS011;27262;-35.248;149.138;2023-06-04T05:50:16;1.80;;;0.60;;
41532;SDS011;27262;-35.248;149.138;2023-06-04T05:52:46;0.88;;;0.52;;
41532;SDS011;27262;-35.248;149.138;2023-06-04T05:55:17;1.77;;;0.80;;
41532;SDS011;27262;-35.248;149.138;2023-06-04T05:57:48;1.83;;;0.52;;
41532;SDS011;27262;-35.248;149.138;2023-06-04T06:00:21;1.58;;;0.80;;
41532;SDS011;27262;-35.248;149.138;2023-06-04T06:02:52;1.38;;;0.63;;
41532;SDS011;27262;-35.248;149.138;2023-06-04T06:05:24;1.02;;;0.50;;
41532;SDS011;27262;-35.248;149.138;2023-06-04T06:07:55;2.03;;;0.60;;
41532;SDS011;27262;-35.248;149.138;2023-06-04T06:10:26;1.17;;;0.90;;
41532;SDS011;27262;-35.248;149.138;2023-06-04T06:12:57;1.83;;;0.65;;
41532;SDS011;27262;-35.248;149.138;2023-06-04T06:15:29;1.05;;;0.68;;
41532;SDS011;27262;-35.248;149.138;2023-06-04T06:17:59;2.45;;;0.60;;
41532;SDS011;27262;-35.248;149.138;2023-06-04T06:20:30;1.42;;;0.50;;
41532;SDS011;27262;-35.248;149.138;2023-06-04T06:23:07;1.52;;;0.60;;
41532;SDS011;27262;-35.248;149.138;2023-06-04T06:25:37;4.53;;;0.65;;
41532;SDS011;27262;-35.248;149.138;2023-06-04T06:28:08;0.70;;;0.50;;
41532;SDS011;27262;-35.248;149.138;2023-06-04T06:30:39;1.35;;;0.57;;
41532;SDS011;27262;-35.248;149.138;2023-06-04T06:33:09;2.05;;;0.65;;
41532;SDS011;27262;-35.248;149.138;2023-06-04T06:35:40;2.10;;;0.70;;
41532;SDS011;27262;-35.248;149.138;2023-06-04T06:38:10;2.08;;;0.65;;
41532;SDS011;27262;-35.248;149.138;2023-06-04T06:40:44;1.15;;;0.50;;
41532;SDS011;27262;-35.248;149.138;2023-06-04T06:43:15;0.90;;;0.50;;
41532;SDS011;27262;-35.248;149.138;2023-06-04T06:45:45;1.25;;;0.70;;
41532;SDS011;27262;-35.248;149.138;2023-06-04T06:48:16;0.65;;;0.45;;
41532;SDS011;27262;-35.248;149.138;2023-06-04T06:50:46;1.33;;;0.68;;
41532;SDS011;27262;-35.248;149.138;2023-06-04T06:53:16;1.02;;;0.50;;
41532;SDS011;27262;-35.248;149.138;2023-06-04T06:55:47;2.80;;;0.73;;
41532;SDS011;27262;-35.248;149.138;2023-06-04T06:58:17;0.55;;;0.38;;
41532;SDS011;27262;-35.248;149.138;2023-06-04T07:00:48;1.45;;;0.60;;
41532;SDS011;27262;-35.248;149.138;2023-06-04T07:03:18;2.40;;;0.60;;
41532;SDS011;27262;-35.248;149.138;2023-06-04T07:05:49;0.50;;;0.50;;
41532;SDS011;27262;-35.248;149.138;2023-06-04T07:08:19;2.78;;;0.73;;
41532;SDS011;27262;-35.248;149.138;2023-06-04T07:10:53;1.38;;;0.82;;
41532;SDS011;27262;-35.248;149.138;2023-06-04T07:13:23;2.67;;;0.52;;
41532;SDS011;27262;-35.248;149.138;2023-06-04T07:15:54;1.95;;;0.73;;
41532;SDS011;27262;-35.248;149.138;2023-06-04T07:18:24;1.00;;;0.70;;
41532;SDS011;27262;-35.248;149.138;2023-06-04T07:20:54;1.15;;;0.57;;
41532;SDS011;27262;-35.248;149.138;2023-06-04T07:23:25;0.55;;;0.50;;
41532;SDS011;27262;-35.248;149.138;2023-06-04T07:25:56;0.60;;;0.50;;
41532;SDS011;27262;-35.248;149.138;2023-06-04T07:28:26;0.80;;;0.50;;
41532;SDS011;27262;-35.248;149.138;2023-06-04T07:30:57;0.68;;;0.45;;
41532;SDS011;27262;-35.248;149.138;2023-06-04T07:33:27;1.20;;;0.52;;
41532;SDS011;27262;-35.248;149.138;2023-06-04T07:35:57;1.17;;;0.50;;
41532;SDS011;27262;-35.248;149.138;2023-06-04T07:38:28;2.05;;;0.43;;
41532;SDS011;27262;-35.248;149.138;2023-06-04T07:40:58;1.92;;;0.50;;
41532;SDS011;27262;-35.248;149.138;2023-06-04T07:43:28;1.27;;;0.40;;
41532;SDS011;27262;-35.248;149.138;2023-06-04T07:45:59;1.55;;;0.60;;
41532;SDS011;27262;-35.248;149.138;2023-06-04T07:48:29;0.85;;;0.50;;
41532;SDS011;27262;-35.248;149.138;2023-06-04T07:51:00;2.25;;;0.68;;
41532;SDS011;27262;-35.248;149.138;2023-06-04T07:53:33;1.85;;;0.50;;
41532;SDS011;27262;-35.248;149.138;2023-06-04T07:56:05;2.05;;;0.52;;
41532;SDS011;27262;-35.248;149.138;2023-06-04T07:58:35;1.98;;;0.55;;
41532;SDS011;27262;-35.248;149.138;2023-06-04T08:01:06;0.70;;;0.40;;
41532;SDS011;27262;-35.248;149.138;2023-06-04T08:03:36;0.50;;;0.40;;
41532;SDS011;27262;-35.248;149.138;2023-06-04T08:06:07;1.05;;;0.45;;
41532;SDS011;27262;-35.248;149.138;2023-06-04T08:08:38;4.50;;;0.52;;
41532;SDS011;27262;-35.248;149.138;2023-06-04T08:11:17;1.35;;;0.70;;
41532;SDS011;27262;-35.248;149.138;2023-06-04T08:13:48;1.85;;;0.60;;
41532;SDS011;27262;-35.248;149.138;2023-06-04T08:16:18;0.98;;;0.55;;
41532;SDS011;27262;-35.248;149.138;2023-06-04T08:18:49;3.17;;;0.60;;
41532;SDS011;27262;-35.248;149.138;2023-06-04T08:21:25;0.63;;;0.47;;
41532;SDS011;27262;-35.248;149.138;2023-06-04T08:23:56;1.00;;;0.52;;
41532;SDS011;27262;-35.248;149.138;2023-06-04T08:26:27;2.10;;;0.50;;
41532;SDS011;27262;-35.248;149.138;2023-06-04T08:29:01;1.88;;;0.50;;
41532;SDS011;27262;-35.248;149.138;2023-06-04T08:31:35;0.73;;;0.50;;
41532;SDS011;27262;-35.248;149.138;2023-06-04T08:34:05;2.28;;;0.40;;
41532;SDS011;27262;-35.248;149.138;2023-06-04T08:36:36;0.93;;;0.50;;
41532;SDS011;27262;-35.248;149.138;2023-06-04T08:39:07;1.10;;;0.57;;
41532;SDS011;27262;-35.248;149.138;2023-06-04T08:41:42;0.82;;;0.50;;
41532;SDS011;27262;-35.248;149.138;2023-06-04T08:44:13;2.03;;;0.40;;
41532;SDS011;27262;-35.248;149.138;2023-06-04T08:46:47;1.08;;;0.55;;
41532;SDS011;27262;-35.248;149.138;2023-06-04T08:49:21;0.70;;;0.50;;
41532;SDS011;27262;-35.248;149.138;2023-06-04T08:51:53;0.73;;;0.47;;
41532;SDS011;27262;-35.248;149.138;2023-06-04T08:54:25;1.52;;;0.70;;
41532;SDS011;27262;-35.248;149.138;2023-06-04T08:56:56;1.48;;;0.63;;
41532;SDS011;27262;-35.248;149.138;2023-06-04T08:59:26;1.33;;;0.55;;
41532;SDS011;27262;-35.248;149.138;2023-06-04T09:01:57;1.15;;;0.57;;
41532;SDS011;27262;-35.248;149.138;2023-06-04T09:04:29;0.90;;;0.65;;
41532;SDS011;27262;-35.248;149.138;2023-06-04T09:07:03;1.58;;;0.60;;
41532;SDS011;27262;-35.248;149.138;2023-06-04T09:09:37;3.35;;;0.55;;
41532;SDS011;27262;-35.248;149.138;2023-06-04T09:12:09;2.13;;;0.45;;
41532;SDS011;27262;-35.248;149.138;2023-06-04T09:14:42;1.00;;;0.60;;
41532;SDS011;27262;-35.248;149.138;2023-06-04T09:17:12;0.57;;;0.43;;
41532;SDS011;27262;-35.248;149.138;2023-06-04T09:19:44;1.35;;;0.50;;
41532;SDS011;27262;-35.248;149.138;2023-06-04T09:22:14;2.03;;;0.63;;
41532;SDS011;27262;-35.248;149.138;2023-06-04T09:24:45;0.40;;;0.40;;
41532;SDS011;27262;-35.248;149.138;2023-06-04T09:27:21;1.70;;;0.52;;
41532;SDS011;27262;-35.248;149.138;2023-06-04T09:29:55;2.15;;;0.60;;
41532;SDS011;27262;-35.248;149.138;2023-06-04T09:32:27;1.52;;;0.60;;
41532;SDS011;27262;-35.248;149.138;2023-06-04T09:35:12;0.93;;;0.40;;
41532;SDS011;27262;-35.248;149.138;2023-06-04T09:37:53;0.93;;;0.50;;
41532;SDS011;27262;-35.248;149.138;2023-06-04T09:40:34;0.70;;;0.50;;
41532;SDS011;27262;-35.248;149.138;2023-06-04T09:43:05;0.50;;;0.40;;
41532;SDS011;27262;-35.248;149.138;2023-06-04T09:45:36;0.82;;;0.60;;
41532;SDS011;27262;-35.248;149.138;2023-06-04T09:48:06;0.40;;;0.40;;
41532;SDS011;27262;-35.248;149.138;2023-06-04T09:50:37;1.75;;;0.60;;
41532;SDS011;27262;-35.248;149.138;2023-06-04T09:53:13;1.77;;;0.65;;
41532;SDS011;27262;-35.248;149.138;2023-06-04T09:55:57;0.73;;;0.55;;
41532;SDS011;27262;-35.248;149.138;2023-06-04T09:58:29;0.68;;;0.40;;
41532;SDS011;27262;-35.248;149.138;2023-06-04T10:01:01;1.15;;;0.50;;
41532;SDS011;27262;-35.248;149.138;2023-06-04T10:03:34;0.50;;;0.50;;
41532;SDS011;27262;-35.248;149.138;2023-06-04T10:06:05;1.08;;;0.40;;
41532;SDS011;27262;-35.248;149.138;2023-06-04T10:08:37;0.55;;;0.40;;
41532;SDS011;27262;-35.248;149.138;2023-06-04T10:11:11;0.85;;;0.40;;
41532;SDS011;27262;-35.248;149.138;2023-06-04T10:13:53;3.08;;;0.50;;
41532;SDS011;27262;-35.248;149.138;2023-06-04T10:16:32;0.68;;;0.50;;
41532;SDS011;27262;-35.248;149.138;2023-06-04T10:19:07;1.38;;;0.50;;
41532;SDS011;27262;-35.248;149.138;2023-06-04T10:21:39;0.68;;;0.50;;
41532;SDS011;27262;-35.248;149.138;2023-06-04T10:24:09;0.45;;;0.32;;
41532;SDS011;27262;-35.248;149.138;2023-06-04T10:26:43;1.70;;;0.60;;
41532;SDS011;27262;-35.248;149.138;2023-06-04T10:29:13;1.38;;;0.50;;
41532;SDS011;27262;-35.248;149.138;2023-06-04T10:31:45;0.60;;;0.40;;
41532;SDS011;27262;-35.248;149.138;2023-06-04T10:34:16;0.73;;;0.43;;
41532;SDS011;27262;-35.248;149.138;2023-06-04T10:36:47;1.25;;;0.50;;
41532;SDS011;27262;-35.248;149.138;2023-06-04T10:39:30;0.63;;;0.45;;
41532;SDS011;27262;-35.248;149.138;2023-06-04T10:42:02;3.60;;;0.47;;
41532;SDS011;27262;-35.248;149.138;2023-06-04T10:44:43;0.82;;;0.35;;
41532;SDS011;27262;-35.248;149.138;2023-06-04T10:47:19;1.75;;;0.47;;
41532;SDS011;27262;-35.248;149.138;2023-06-04T10:49:54;0.30;;;0.30;;
41532;SDS011;27262;-35.248;149.138;2023-06-04T10:52:36;1.95;;;0.40;;
41532;SDS011;27262;-35.248;149.138;2023-06-04T10:55:08;1.45;;;0.45;;
41532;SDS011;27262;-35.248;149.138;2023-06-04T10:57:39;0.47;;;0.30;;
41532;SDS011;27262;-35.248;149.138;2023-06-04T11:00:19;1.02;;;0.45;;
41532;SDS011;27262;-35.248;149.138;2023-06-04T11:02:53;0.80;;;0.40;;
41532;SDS011;27262;-35.248;149.138;2023-06-04T11:05:34;0.70;;;0.40;;
41532;SDS011;27262;-35.248;149.138;2023-06-04T11:08:05;2.15;;;0.60;;
41532;SDS011;27262;-35.248;149.138;2023-06-04T11:10:40;0.35;;;0.30;;
41532;SDS011;27262;-35.248;149.138;2023-06-04T11:13:12;0.50;;;0.30;;
41532;SDS011;27262;-35.248;149.138;2023-06-04T11:15:44;0.35;;;0.35;;
41532;SDS011;27262;-35.248;149.138;2023-06-04T11:18:17;0.65;;;0.40;;
41532;SDS011;27262;-35.248;149.138;2023-06-04T11:20:50;0.40;;;0.30;;
41532;SDS011;27262;-35.248;149.138;2023-06-04T11:23:29;0.75;;;0.50;;
41532;SDS011;27262;-35.248;149.138;2023-06-04T11:26:00;0.98;;;0.40;;
41532;SDS011;27262;-35.248;149.138;2023-06-04T11:28:31;0.95;;;0.40;;
41532;SDS011;27262;-35.248;149.138;2023-06-04T11:31:02;2.72;;;0.50;;
41532;SDS011;27262;-35.248;149.138;2023-06-04T11:33:44;0.52;;;0.32;;
41532;SDS011;27262;-35.248;149.138;2023-06-04T11:36:28;0.82;;;0.50;;
41532;SDS011;27262;-35.248;149.138;2023-06-04T11:39:00;1.05;;;0.50;;
41532;SDS011;27262;-35.248;149.138;2023-06-04T11:41:32;2.25;;;0.60;;
41532;SDS011;27262;-35.248;149.138;2023-06-04T11:44:06;1.20;;;0.43;;
41532;SDS011;27262;-35.248;149.138;2023-06-04T11:46:40;0.95;;;0.50;;
41532;SDS011;27262;-35.248;149.138;2023-06-04T11:49:17;1.67;;;0.45;;
41532;SDS011;27262;-35.248;149.138;2023-06-04T11:51:49;2.63;;;0.50;;
41532;SDS011;27262;-35.248;149.138;2023-06-04T11:54:21;1.02;;;0.32;;
41532;SDS011;27262;-35.248;149.138;2023-06-04T11:56:52;2.13;;;0.50;;
41532;SDS011;27262;-35.248;149.138;2023-06-04T11:59:23;1.40;;;0.55;;
41532;SDS011;27262;-35.248;149.138;2023-06-04T12:01:53;1.85;;;0.50;;
41532;SDS011;27262;-35.248;149.138;2023-06-04T12:04:29;3.10;;;0.50;;
41532;SDS011;27262;-35.248;149.138;2023-06-04T12:07:01;1.25;;;0.73;;
41532;SDS011;27262;-35.248;149.138;2023-06-04T12:09:34;1.20;;;0.50;;
41532;SDS011;27262;-35.248;149.138;2023-06-04T12:12:07;0.28;;;0.28;;
41532;SDS011;27262;-35.248;149.138;2023-06-04T12:14:38;0.82;;;0.40;;
41532;SDS011;27262;-35.248;149.138;2023-06-04T12:17:09;0.77;;;0.38;;
41532;SDS011;27262;-35.248;149.138;2023-06-04T12:19:46;0.82;;;0.40;;
41532;SDS011;27262;-35.248;149.138;2023-06-04T12:22:17;1.67;;;0.50;;
41532;SDS011;27262;-35.248;149.138;2023-06-04T12:24:52;0.95;;;0.52;;
41532;SDS011;27262;-35.248;149.138;2023-06-04T12:27:25;0.90;;;0.25;;
41532;SDS011;27262;-35.248;149.138;2023-06-04T12:32:35;0.98;;;0.35;;
41532;SDS011;27262;-35.248;149.138;2023-06-04T12:35:06;1.13;;;0.30;;
41532;SDS011;27262;-35.248;149.138;2023-06-04T12:37:37;0.80;;;0.40;;
41532;SDS011;27262;-35.248;149.138;2023-06-04T12:40:08;0.63;;;0.30;;
41532;SDS011;27262;-35.248;149.138;2023-06-04T12:42:39;0.80;;;0.60;;
41532;SDS011;27262;-35.248;149.138;2023-06-04T12:45:09;0.45;;;0.30;;
41532;SDS011;27262;-35.248;149.138;2023-06-04T12:47:41;0.20;;;0.20;;
41532;SDS011;27262;-35.248;149.138;2023-06-04T12:50:12;1.30;;;0.30;;
41532;SDS011;27262;-35.248;149.138;2023-06-04T12:52:43;0.40;;;0.25;;
41532;SDS011;27262;-35.248;149.138;2023-06-04T12:55:13;0.30;;;0.20;;
41532;SDS011;27262;-35.248;149.138;2023-06-04T12:57:43;0.30;;;0.30;;
41532;SDS011;27262;-35.248;149.138;2023-06-04T13:00:15;0.80;;;0.30;;
41532;SDS011;27262;-35.248;149.138;2023-06-04T13:02:45;0.30;;;0.20;;
41532;SDS011;27262;-35.248;149.138;2023-06-04T13:05:16;0.20;;;0.20;;
41532;SDS011;27262;-35.248;149.138;2023-06-04T13:07:46;0.20;;;0.20;;
41532;SDS011;27262;-35.248;149.138;2023-06-04T13:10:16;0.20;;;0.20;;
41532;SDS011;27262;-35.248;149.138;2023-06-04T13:12:47;0.50;;;0.28;;
41532;SDS011;27262;-35.248;149.138;2023-06-04T13:15:17;0.85;;;0.20;;
41532;SDS011;27262;-35.248;149.138;2023-06-04T13:17:47;0.90;;;0.32;;
41532;SDS011;27262;-35.248;149.138;2023-06-04T13:20:18;0.40;;;0.30;;
41532;SDS011;27262;-35.248;149.138;2023-06-04T13:22:48;0.13;;;0.13;;
41532;SDS011;27262;-35.248;149.138;2023-06-04T13:25:19;0.30;;;0.20;;
41532;SDS011;27262;-35.248;149.138;2023-06-04T13:27:49;0.20;;;0.20;;
41532;SDS011;27262;-35.248;149.138;2023-06-04T13:30:19;0.25;;;0.25;;
41532;SDS011;27262;-35.248;149.138;2023-06-04T13:32:53;0.50;;;0.20;;
41532;SDS011;27262;-35.248;149.138;2023-06-04T13:35:24;0.55;;;0.40;;
41532;SDS011;27262;-35.248;149.138;2023-06-04T13:37:55;0.47;;;0.30;;
41532;SDS011;27262;-35.248;149.138;2023-06-04T13:40:25;1.33;;;0.20;;
41532;SDS011;27262;-35.248;149.138;2023-06-04T13:42:55;0.35;;;0.20;;
41532;SDS011;27262;-35.248;149.138;2023-06-04T13:45:26;1.85;;;0.40;;
41532;SDS011;27262;-35.248;149.138;2023-06-04T13:47:56;1.02;;;0.17;;
41532;SDS011;27262;-35.248;149.138;2023-06-04T13:50:33;0.10;;;0.10;;
41532;SDS011;27262;-35.248;149.138;2023-06-04T13:53:04;0.35;;;0.20;;
41532;SDS011;27262;-35.248;149.138;2023-06-04T13:55:34;0.25;;;0.20;;
41532;SDS011;27262;-35.248;149.138;2023-06-04T13:58:05;0.47;;;0.30;;
41532;SDS011;27262;-35.248;149.138;2023-06-04T14:00:35;0.20;;;0.20;;
41532;SDS011;27262;-35.248;149.138;2023-06-04T14:03:06;0.20;;;0.13;;
41532;SDS011;27262;-35.248;149.138;2023-06-04T14:05:37;1.05;;;0.30;;
41532;SDS011;27262;-35.248;149.138;2023-06-04T14:08:07;0.20;;;0.20;;
41532;SDS011;27262;-35.248;149.138;2023-06-04T14:10:38;0.22;;;0.20;;
41532;SDS011;27262;-35.248;149.138;2023-06-04T14:13:09;0.13;;;0.13;;
41532;SDS011;27262;-35.248;149.138;2023-06-04T14:15:40;0.10;;;0.10;;
41532;SDS011;27262;-35.248;149.138;2023-06-04T14:18:10;0.60;;;0.20;;
41532;SDS011;27262;-35.248;149.138;2023-06-04T14:20:41;0.43;;;0.20;;
41532;SDS011;27262;-35.248;149.138;2023-06-04T14:23:12;0.40;;;0.20;;
41532;SDS011;27262;-35.248;149.138;2023-06-04T14:25:42;0.17;;;0.17;;
41532;SDS011;27262;-35.248;149.138;2023-06-04T14:28:12;0.47;;;0.20;;
41532;SDS011;27262;-35.248;149.138;2023-06-04T14:30:43;0.15;;;0.10;;
41532;SDS011;27262;-35.248;149.138;2023-06-04T14:33:14;0.30;;;0.20;;
41532;SDS011;27262;-35.248;149.138;2023-06-04T14:35:44;0.10;;;0.10;;
41532;SDS011;27262;-35.248;149.138;2023-06-04T14:38:16;0.20;;;0.20;;
41532;SDS011;27262;-35.248;149.138;2023-06-04T14:40:49;0.30;;;0.20;;